sensor_id;sensor_type;location;lat;lon;timestamp;pressure;altitude;pressure_sealevel;temperature;humidity
70521;BME280;58442;52.716;23.560;2022-12-07T00:01:28;100787.12;;;1.00;79.14
70521;BME280;58442;52.716;23.560;2022-12-07T00:03:29;100782.84;;;0.99;78.96
70521;BME280;58442;52.716;23.560;2022-12-07T00:05:31;100784.95;;;1.02;78.99
70521;BME280;58442;52.716;23.560;2022-12-07T00:07:32;100794.05;;;1.01;79.00
70521;BME280;58442;52.716;23.560;2022-12-07T00:09:40;100788.70;;;1.01;79.00
70521;BME280;58442;52.716;23.560;2022-12-07T00:11:42;100785.23;;;1.01;79.02
70521;BME280;58442;52.716;23.560;2022-12-07T00:13:45;100785.23;;;1.01;79.01
70521;BME280;58442;52.716;23.560;2022-12-07T00:15:46;100782.84;;;0.99;79.05
70521;BME280;58442;52.716;23.560;2022-12-07T00:17:55;100775.11;;;0.98;79.12
70521;BME280;58442;52.716;23.560;2022-12-07T00:19:56;100771.34;;;0.99;79.14
70521;BME280;58442;52.716;23.560;2022-12-07T00:21:57;100771.34;;;0.99;79.06
70521;BME280;58442;52.716;23.560;2022-12-07T00:23:59;100764.91;;;1.00;79.12
70521;BME280;58442;52.716;23.560;2022-12-07T00:26:19;100760.06;;;1.02;79.05
70521;BME280;58442;52.716;23.560;2022-12-07T00:28:21;100758.19;;;1.02;79.06
70521;BME280;58442;52.716;23.560;2022-12-07T00:30:23;100761.39;;;1.04;79.05
70521;BME280;58442;52.716;23.560;2022-12-07T00:32:24;100767.25;;;1.06;79.03
70521;BME280;58442;52.716;23.560;2022-12-07T00:34:26;100769.94;;;1.06;78.98
70521;BME280;58442;52.716;23.560;2022-12-07T00:36:27;100760.31;;;1.05;78.95
70521;BME280;58442;52.716;23.560;2022-12-07T00:38:30;100765.95;;;1.04;78.98
70521;BME280;58442;52.716;23.560;2022-12-07T00:40:31;100762.48;;;1.03;79.00
70521;BME280;58442;52.716;23.560;2022-12-07T00:42:41;100746.69;;;1.02;79.02
70521;BME280;58442;52.716;23.560;2022-12-07T00:44:42;100747.48;;;1.02;78.99
70521;BME280;58442;52.716;23.560;2022-12-07T00:46:43;100749.65;;;1.00;79.03
70521;BME280;58442;52.716;23.560;2022-12-07T00:48:47;100746.97;;;1.00;79.10
70521;BME280;58442;52.716;23.560;2022-12-07T00:50:57;100744.80;;;1.02;79.12
70521;BME280;58442;52.716;23.560;2022-12-07T00:52:58;100750.41;;;1.06;79.09
70521;BME280;58442;52.716;23.560;2022-12-07T00:54:59;100737.02;;;1.06;79.01
70521;BME280;58442;52.716;23.560;2022-12-07T00:57:00;100739.70;;;1.06;78.96
70521;BME280;58442;52.716;23.560;2022-12-07T00:59:13;100738.91;;;1.05;79.00
70521;BME280;58442;52.716;23.560;2022-12-07T01:01:17;100725.52;;;1.05;78.98
70521;BME280;58442;52.716;23.560;2022-12-07T01:03:18;100719.38;;;1.05;78.95
70521;BME280;58442;52.716;23.560;2022-12-07T01:05:19;100711.34;;;1.05;78.97
70521;BME280;58442;52.716;23.560;2022-12-07T01:07:26;100718.29;;;1.06;79.03
70521;BME280;58442;52.716;23.560;2022-12-07T01:09:27;100713.44;;;1.08;79.11
70521;BME280;58442;52.716;23.560;2022-12-07T01:11:29;100707.80;;;1.09;78.98
70521;BME280;58442;52.716;23.560;2022-12-07T01:13:31;100705.95;;;1.10;78.94
70521;BME280;58442;52.716;23.560;2022-12-07T01:15:43;100704.32;;;1.09;78.97
70521;BME280;58442;52.716;23.560;2022-12-07T01:17:44;100701.65;;;1.09;78.98
70521;BME280;58442;52.716;23.560;2022-12-07T01:19:46;100698.18;;;1.08;78.99
70521;BME280;58442;52.716;23.560;2022-12-07T01:21:46;100694.16;;;1.11;79.01
70521;BME280;58442;52.716;23.560;2022-12-07T01:23:57;100695.24;;;1.10;78.95
70521;BME280;58442;52.716;23.560;2022-12-07T01:26:01;100693.36;;;1.11;78.93
70521;BME280;58442;52.716;23.560;2022-12-07T01:28:02;100697.92;;;1.10;78.87
70521;BME280;58442;52.716;23.560;2022-12-07T01:30:05;100698.98;;;1.09;78.97
70521;BME280;58442;52.716;23.560;2022-12-07T01:32:11;100697.92;;;1.10;78.96
70521;BME280;58442;52.716;23.560;2022-12-07T01:34:13;100693.63;;;1.09;78.96
70521;BME280;58442;52.716;23.560;2022-12-07T01:36:25;100696.30;;;1.09;79.03
70521;BME280;58442;52.716;23.560;2022-12-07T01:38:22;100688.01;;;1.11;78.96
70521;BME280;58442;52.716;23.560;2022-12-07T01:40:26;100690.95;;;1.09;78.96
70521;BME280;58442;52.716;23.560;2022-12-07T01:42:28;100690.14;;;1.08;78.97
70521;BME280;58442;52.716;23.560;2022-12-07T01:44:29;100692.56;;;1.10;79.05
70521;BME280;58442;52.716;23.560;2022-12-07T01:46:33;100689.06;;;1.09;79.05
70521;BME280;58442;52.716;23.560;2022-12-07T01:48:43;100684.79;;;1.08;78.99
70521;BME280;58442;52.716;23.560;2022-12-07T01:50:45;100681.62;;;1.06;79.09
70521;BME280;58442;52.716;23.560;2022-12-07T01:52:51;100680.54;;;1.07;79.11
70521;BME280;58442;52.716;23.560;2022-12-07T01:54:58;100678.65;;;1.08;79.18
70521;BME280;58442;52.716;23.560;2022-12-07T01:57:01;100679.98;;;1.11;79.15
70521;BME280;58442;52.716;23.560;2022-12-07T01:59:03;100685.34;;;1.11;79.09
70521;BME280;58442;52.716;23.560;2022-12-07T02:01:04;100690.14;;;1.08;79.13
70521;BME280;58442;52.716;23.560;2022-12-07T02:03:56;100684.79;;;1.08;79.19
70521;BME280;58442;52.716;23.560;2022-12-07T02:05:24;100689.06;;;1.09;79.19
70521;BME280;58442;52.716;23.560;2022-12-07T02:07:36;100677.30;;;1.11;79.15
70521;BME280;58442;52.716;23.560;2022-12-07T02:09:38;100673.53;;;1.12;79.18
70521;BME280;58442;52.716;23.560;2022-12-07T02:11:40;100674.33;;;1.12;79.18
70521;BME280;58442;52.716;23.560;2022-12-07T02:13:43;100667.10;;;1.13;79.21
70521;BME280;58442;52.716;23.560;2022-12-07T02:20:45;100660.66;;;1.14;79.21
70521;BME280;58442;52.716;23.560;2022-12-07T02:30:06;100641.98;;;1.08;79.34
70521;BME280;58442;52.716;23.560;2022-12-07T02:34:30;100631.02;;;1.10;79.46
70521;BME280;58442;52.716;23.560;2022-12-07T02:36:33;100636.08;;;1.12;79.38
70521;BME280;58442;52.716;23.560;2022-12-07T02:38:45;100631.52;;;1.12;79.40
70521;BME280;58442;52.716;23.560;2022-12-07T02:43:12;100621.80;;;1.16;79.39
70521;BME280;58442;52.716;23.560;2022-12-07T02:45:18;100622.61;;;1.17;79.32
70521;BME280;58442;52.716;23.560;2022-12-07T02:47:21;100612.20;;;1.15;79.39
70521;BME280;58442;52.716;23.560;2022-12-07T02:49:27;100612.48;;;1.14;79.72
70521;BME280;58442;52.716;23.560;2022-12-07T02:51:33;100608.72;;;1.15;79.52
70521;BME280;58442;52.716;23.560;2022-12-07T02:53:36;100611.90;;;1.17;79.49
70521;BME280;58442;52.716;23.560;2022-12-07T02:55:41;100606.28;;;1.18;79.52
70521;BME280;58442;52.716;23.560;2022-12-07T03:06:56;100591.95;;;1.28;79.39
70521;BME280;58442;52.716;23.560;2022-12-07T03:09:20;100592.74;;;1.28;79.38
70521;BME280;58442;52.716;23.560;2022-12-07T03:11:38;100589.77;;;1.30;79.38
70521;BME280;58442;52.716;23.560;2022-12-07T03:13:58;100586.84;;;1.31;79.39
70521;BME280;58442;52.716;23.560;2022-12-07T03:16:14;100591.89;;;1.33;79.39
70521;BME280;58442;52.716;23.560;2022-12-07T03:18:19;100596.16;;;1.34;79.34
70521;BME280;58442;52.716;23.560;2022-12-07T03:20:25;100590.02;;;1.33;79.35
70521;BME280;58442;52.716;23.560;2022-12-07T03:22:31;100581.68;;;1.35;79.36
70521;BME280;58442;52.716;23.560;2022-12-07T03:24:47;100580.59;;;1.36;79.30
70521;BME280;58442;52.716;23.560;2022-12-07T03:27:07;100578.44;;;1.38;79.34
70521;BME280;58442;52.716;23.560;2022-12-07T03:29:14;100578.16;;;1.40;79.32
70521;BME280;58442;52.716;23.560;2022-12-07T03:31:22;100582.12;;;1.42;79.23
70521;BME280;58442;52.716;23.560;2022-12-07T03:33:30;100575.96;;;1.42;79.17
70521;BME280;58442;52.716;23.560;2022-12-07T03:35:38;100576.27;;;1.40;79.15
70521;BME280;58442;52.716;23.560;2022-12-07T03:37:49;100566.64;;;1.39;79.26
70521;BME280;58442;52.716;23.560;2022-12-07T03:42:05;100560.20;;;1.40;79.36
70521;BME280;58442;52.716;23.560;2022-12-07T03:44:08;100567.93;;;1.42;79.32
70521;BME280;58442;52.716;23.560;2022-12-07T03:48:36;100560.70;;;1.42;79.31
70521;BME280;58442;52.716;23.560;2022-12-07T03:51:04;100552.16;;;1.40;79.35
70521;BME280;58442;52.716;23.560;2022-12-07T03:53:05;100554.54;;;1.42;79.34
70521;BME280;58442;52.716;23.560;2022-12-07T03:55:18;100554.05;;;1.40;79.37
70521;BME280;58442;52.716;23.560;2022-12-07T03:57:22;100555.34;;;1.42;79.41
70521;BME280;58442;52.716;23.560;2022-12-07T03:59:25;100546.22;;;1.43;79.40
70521;BME280;58442;52.716;23.560;2022-12-07T04:01:34;100547.84;;;1.44;79.37
70521;BME280;58442;52.716;23.560;2022-12-07T04:03:35;100544.85;;;1.46;79.38
70521;BME280;58442;52.716;23.560;2022-12-07T04:05:37;100543.77;;;1.47;79.40
70521;BME280;58442;52.716;23.560;2022-12-07T04:07:38;100543.77;;;1.47;79.38
70521;BME280;58442;52.716;23.560;2022-12-07T04:09:49;100543.48;;;1.48;79.43
70521;BME280;58442;52.716;23.560;2022-12-07T04:11:50;100541.89;;;1.47;79.42
70521;BME280;58442;52.716;23.560;2022-12-07T04:13:51;100538.12;;;1.48;79.45
70521;BME280;58442;52.716;23.560;2022-12-07T04:16:07;100538.62;;;1.50;79.45
70521;BME280;58442;52.716;23.560;2022-12-07T04:18:08;100532.19;;;1.51;79.44
70521;BME280;58442;52.716;23.560;2022-12-07T04:20:10;100537.25;;;1.53;79.41
70521;BME280;58442;52.716;23.560;2022-12-07T04:22:11;100543.11;;;1.55;79.39
70521;BME280;58442;52.716;23.560;2022-12-07T04:24:14;100534.77;;;1.56;79.35
70521;BME280;58442;52.716;23.560;2022-12-07T04:26:19;100533.68;;;1.57;79.33
70521;BME280;58442;52.716;23.560;2022-12-07T04:28:20;100535.56;;;1.57;79.30
70521;BME280;58442;52.716;23.560;2022-12-07T04:30:21;100531.00;;;1.57;79.26
70521;BME280;58442;52.716;23.560;2022-12-07T04:32:23;100527.53;;;1.57;79.28
70521;BME280;58442;52.716;23.560;2022-12-07T04:34:34;100524.05;;;1.56;79.37
70521;BME280;58442;52.716;23.560;2022-12-07T04:36:35;100524.84;;;1.57;79.39
70521;BME280;58442;52.716;23.560;2022-12-07T04:38:36;100513.88;;;1.58;79.34
70521;BME280;58442;52.716;23.560;2022-12-07T04:40:37;100514.93;;;1.57;79.35
70521;BME280;58442;52.716;23.560;2022-12-07T04:42:38;100510.40;;;1.58;79.41
70521;BME280;58442;52.716;23.560;2022-12-07T04:44:39;100512.78;;;1.59;79.42
70521;BME280;58442;52.716;23.560;2022-12-07T04:46:41;100513.88;;;1.58;79.43
70521;BME280;58442;52.716;23.560;2022-12-07T04:48:43;100502.55;;;1.61;79.47
70521;BME280;58442;52.716;23.560;2022-12-07T04:50:48;100506.03;;;1.62;79.50
70521;BME280;58442;52.716;23.560;2022-12-07T04:52:50;100507.62;;;1.63;79.59
70521;BME280;58442;52.716;23.560;2022-12-07T04:54:51;100505.16;;;1.67;79.58
70521;BME280;58442;52.716;23.560;2022-12-07T04:56:58;100504.26;;;1.71;79.50
70521;BME280;58442;52.716;23.560;2022-12-07T04:59:00;100504.48;;;1.75;79.42
70521;BME280;58442;52.716;23.560;2022-12-07T05:01:01;100492.38;;;1.77;79.28
70521;BME280;58442;52.716;23.560;2022-12-07T05:03:02;100495.35;;;1.76;79.26
70521;BME280;58442;52.716;23.560;2022-12-07T05:05:03;100492.38;;;1.77;79.34
70521;BME280;58442;52.716;23.560;2022-12-07T05:07:04;100491.28;;;1.78;79.29
70521;BME280;58442;52.716;23.560;2022-12-07T05:09:06;100494.48;;;1.80;79.25
70521;BME280;58442;52.716;23.560;2022-12-07T05:11:10;100499.31;;;1.78;79.24
70521;BME280;58442;52.716;23.560;2022-12-07T05:13:31;100492.67;;;1.76;79.34
70521;BME280;58442;52.716;23.560;2022-12-07T05:15:32;100491.88;;;1.75;79.39
70521;BME280;58442;52.716;23.560;2022-12-07T05:17:33;100480.07;;;1.76;79.40
70521;BME280;58442;52.716;23.560;2022-12-07T05:19:34;100483.36;;;1.73;79.39
70521;BME280;58442;52.716;23.560;2022-12-07T05:21:45;100479.09;;;1.72;79.57
70521;BME280;58442;52.716;23.560;2022-12-07T05:23:46;100478.78;;;1.74;79.62
70521;BME280;58442;52.716;23.560;2022-12-07T05:25:47;100484.64;;;1.76;79.57
70521;BME280;58442;52.716;23.560;2022-12-07T05:27:48;100484.64;;;1.76;79.58
70521;BME280;58442;52.716;23.560;2022-12-07T05:30:00;100481.66;;;1.77;79.63
70521;BME280;58442;52.716;23.560;2022-12-07T05:32:01;100485.92;;;1.78;79.63
70521;BME280;58442;52.716;23.560;2022-12-07T05:34:02;100482.19;;;1.79;79.54
70521;BME280;58442;52.716;23.560;2022-12-07T05:36:03;100483.77;;;1.80;79.60
70521;BME280;58442;52.716;23.560;2022-12-07T05:38:15;100488.02;;;1.81;79.62
70521;BME280;58442;52.716;23.560;2022-12-07T05:40:17;100475.13;;;1.83;79.58
70521;BME280;58442;52.716;23.560;2022-12-07T05:42:19;100473.75;;;1.86;79.56
70521;BME280;58442;52.716;23.560;2022-12-07T05:44:20;100472.97;;;1.85;79.50
70521;BME280;58442;52.716;23.560;2022-12-07T05:46:30;100473.75;;;1.86;79.56
70521;BME280;58442;52.716;23.560;2022-12-07T05:48:31;100477.72;;;1.88;79.58
70521;BME280;58442;52.716;23.560;2022-12-07T05:50:32;100476.33;;;1.91;79.54
70521;BME280;58442;52.716;23.560;2022-12-07T05:52:34;100479.80;;;1.91;79.52
70521;BME280;58442;52.716;23.560;2022-12-07T05:54:45;100474.16;;;1.93;79.48
70521;BME280;58442;52.716;23.560;2022-12-07T05:56:46;100472.27;;;1.94;79.47
70521;BME280;58442;52.716;23.560;2022-12-07T05:58:47;100476.05;;;1.93;79.48
70521;BME280;58442;52.716;23.560;2022-12-07T06:01:00;100477.64;;;1.94;79.56
70521;BME280;58442;52.716;23.560;2022-12-07T06:03:01;100471.97;;;1.95;79.56
70521;BME280;58442;52.716;23.560;2022-12-07T06:05:02;100471.37;;;1.98;79.55
70521;BME280;58442;52.716;23.560;2022-12-07T06:07:04;100472.99;;;1.99;79.49
70521;BME280;58442;52.716;23.560;2022-12-07T06:09:06;100468.41;;;2.00;79.50
70521;BME280;58442;52.716;23.560;2022-12-07T06:11:15;100468.12;;;2.01;79.55
70521;BME280;58442;52.716;23.560;2022-12-07T06:13:36;100465.92;;;2.03;79.53
70521;BME280;58442;52.716;23.560;2022-12-07T06:15:37;100467.21;;;2.06;79.48
70521;BME280;58442;52.716;23.560;2022-12-07T06:17:39;100465.62;;;2.05;79.51
70521;BME280;58442;52.716;23.560;2022-12-07T06:19:41;100460.78;;;2.07;79.57
70521;BME280;58442;52.716;23.560;2022-12-07T06:21:52;100452.44;;;2.08;79.55
70521;BME280;58442;52.716;23.560;2022-12-07T06:23:54;100455.90;;;2.09;79.54
70521;BME280;58442;52.716;23.560;2022-12-07T06:25:55;100457.49;;;2.10;79.59
70521;BME280;58442;52.716;23.560;2022-12-07T06:27:56;100456.40;;;2.11;79.57
70521;BME280;58442;52.716;23.560;2022-12-07T06:30:07;100458.77;;;2.12;79.56
70521;BME280;58442;52.716;23.560;2022-12-07T06:32:09;100461.97;;;2.14;79.51
70521;BME280;58442;52.716;23.560;2022-12-07T06:34:14;100456.61;;;2.14;79.52
70521;BME280;58442;52.716;23.560;2022-12-07T06:36:16;100458.20;;;2.15;79.51
70521;BME280;58442;52.716;23.560;2022-12-07T06:38:22;100460.88;;;2.15;79.52
70521;BME280;58442;52.716;23.560;2022-12-07T06:40:23;100462.46;;;2.16;79.57
70521;BME280;58442;52.716;23.560;2022-12-07T06:42:24;100462.46;;;2.16;79.60
70521;BME280;58442;52.716;23.560;2022-12-07T06:44:25;100456.00;;;2.17;79.64
70521;BME280;58442;52.716;23.560;2022-12-07T06:46:37;100460.78;;;2.21;79.62
70521;BME280;58442;52.716;23.560;2022-12-07T06:48:38;100458.59;;;2.23;79.65
70521;BME280;58442;52.716;23.560;2022-12-07T06:50:39;100457.19;;;2.25;79.57
70521;BME280;58442;52.716;23.560;2022-12-07T06:52:40;100458.50;;;2.28;79.51
70521;BME280;58442;52.716;23.560;2022-12-07T06:54:41;100454.42;;;2.30;79.44
70521;BME280;58442;52.716;23.560;2022-12-07T06:56:42;100455.70;;;2.33;79.38
70521;BME280;58442;52.716;23.560;2022-12-07T06:58:43;100457.32;;;2.34;79.33
70521;BME280;58442;52.716;23.560;2022-12-07T07:00:48;100447.38;;;2.34;79.31
70521;BME280;58442;52.716;23.560;2022-12-07T07:02:50;100448.17;;;2.35;79.28
70521;BME280;58442;52.716;23.560;2022-12-07T07:04:51;100449.75;;;2.36;79.26
70521;BME280;58442;52.716;23.560;2022-12-07T07:06:52;100451.34;;;2.37;79.27
70521;BME280;58442;52.716;23.560;2022-12-07T07:09:01;100443.78;;;2.39;79.24
70521;BME280;58442;52.716;23.560;2022-12-07T07:11:03;100456.91;;;2.40;79.21
70521;BME280;58442;52.716;23.560;2022-12-07T07:13:04;100448.87;;;2.40;79.19
70521;BME280;58442;52.716;23.560;2022-12-07T07:15:06;100455.02;;;2.41;79.18
70521;BME280;58442;52.716;23.560;2022-12-07T07:17:16;100450.45;;;2.41;79.14
70521;BME280;58442;52.716;23.560;2022-12-07T07:19:17;100448.04;;;2.40;79.19
70521;BME280;58442;52.716;23.560;2022-12-07T07:21:18;100448.04;;;2.40;79.25
70521;BME280;58442;52.716;23.560;2022-12-07T07:23:20;100444.30;;;2.41;79.23
70521;BME280;58442;52.716;23.560;2022-12-07T07:25:31;100443.20;;;2.42;79.23
70521;BME280;58442;52.716;23.560;2022-12-07T07:27:32;100444.78;;;2.43;79.21
70521;BME280;58442;52.716;23.560;2022-12-07T07:29:33;100439.72;;;2.41;79.21
70521;BME280;58442;52.716;23.560;2022-12-07T07:31:34;100438.93;;;2.41;79.24
70521;BME280;58442;52.716;23.560;2022-12-07T07:33:47;100448.04;;;2.40;79.26
70521;BME280;58442;52.716;23.560;2022-12-07T07:35:48;100438.41;;;2.39;79.37
70521;BME280;58442;52.716;23.560;2022-12-07T07:37:49;100440.00;;;2.40;79.35
70521;BME280;58442;52.716;23.560;2022-12-07T07:39:50;100437.84;;;2.42;79.32
70521;BME280;58442;52.716;23.560;2022-12-07T07:42:01;100432.46;;;2.42;79.34
70521;BME280;58442;52.716;23.560;2022-12-07T07:44:02;100428.08;;;2.46;79.31
70521;BME280;58442;52.716;23.560;2022-12-07T07:46:03;100433.16;;;2.48;79.26
70521;BME280;58442;52.716;23.560;2022-12-07T07:48:05;100425.91;;;2.48;79.24
70521;BME280;58442;52.716;23.560;2022-12-07T07:50:17;100427.49;;;2.49;79.24
70521;BME280;58442;52.716;23.560;2022-12-07T07:52:18;100436.33;;;2.50;79.26
70521;BME280;58442;52.716;23.560;2022-12-07T07:54:19;100430.66;;;2.51;79.26
70521;BME280;58442;52.716;23.560;2022-12-07T07:56:20;100440.80;;;2.54;79.22
70521;BME280;58442;52.716;23.560;2022-12-07T07:58:31;100433.55;;;2.55;79.16
70521;BME280;58442;52.716;23.560;2022-12-07T08:00:32;100432.75;;;2.54;79.14
70521;BME280;58442;52.716;23.560;2022-12-07T08:02:33;100438.91;;;2.55;79.17
70521;BME280;58442;52.716;23.560;2022-12-07T08:04:35;100434.34;;;2.55;79.16
70521;BME280;58442;52.716;23.560;2022-12-07T08:06:46;100429.45;;;2.57;79.18
70521;BME280;58442;52.716;23.560;2022-12-07T08:08:47;100431.34;;;2.57;79.20
70521;BME280;58442;52.716;23.560;2022-12-07T08:10:48;100435.61;;;2.58;79.12
70521;BME280;58442;52.716;23.560;2022-12-07T08:12:51;100432.63;;;2.59;79.13
70521;BME280;58442;52.716;23.560;2022-12-07T08:15:04;100433.41;;;2.60;79.10
70521;BME280;58442;52.716;23.560;2022-12-07T08:17:06;100435.31;;;2.59;79.09
70521;BME280;58442;52.716;23.560;2022-12-07T08:19:07;100439.58;;;2.60;79.15
70521;BME280;58442;52.716;23.560;2022-12-07T08:21:11;100438.50;;;2.61;79.16
70521;BME280;58442;52.716;23.560;2022-12-07T08:23:16;100438.99;;;2.63;79.17
70521;BME280;58442;52.716;23.560;2022-12-07T08:25:18;100435.20;;;2.64;79.09
70521;BME280;58442;52.716;23.560;2022-12-07T08:27:19;100441.36;;;2.65;79.04
70521;BME280;58442;52.716;23.560;2022-12-07T08:29:20;100440.57;;;2.64;79.06
70521;BME280;58442;52.716;23.560;2022-12-07T08:31:31;100445.94;;;2.64;79.06
70521;BME280;58442;52.716;23.560;2022-12-07T08:33:33;100442.15;;;2.65;79.10
70521;BME280;58442;52.716;23.560;2022-12-07T08:35:34;100441.36;;;2.65;79.01
70521;BME280;58442;52.716;23.560;2022-12-07T08:37:36;100440.57;;;2.64;79.04
70521;BME280;58442;52.716;23.560;2022-12-07T08:39:46;100440.57;;;2.64;79.11
70521;BME280;58442;52.716;23.560;2022-12-07T08:41:47;100441.56;;;2.68;79.09
70521;BME280;58442;52.716;23.560;2022-12-07T08:43:48;100434.01;;;2.70;79.03
70521;BME280;58442;52.716;23.560;2022-12-07T08:45:56;100430.23;;;2.71;78.95
70521;BME280;58442;52.716;23.560;2022-12-07T08:48:10;100434.80;;;2.71;78.96
70521;BME280;58442;52.716;23.560;2022-12-07T08:50:12;100438.58;;;2.70;78.95
70521;BME280;58442;52.716;23.560;2022-12-07T08:52:14;100435.59;;;2.71;78.94
70521;BME280;58442;52.716;23.560;2022-12-07T08:54:17;100431.91;;;2.67;79.01
70521;BME280;58442;52.716;23.560;2022-12-07T08:56:19;100433.01;;;2.66;79.05
70521;BME280;58442;52.716;23.560;2022-12-07T08:58:22;100431.91;;;2.67;79.11
70521;BME280;58442;52.716;23.560;2022-12-07T09:00:23;100430.83;;;2.68;79.06
70521;BME280;58442;52.716;23.560;2022-12-07T09:02:24;100427.05;;;2.69;79.09
70521;BME280;58442;52.716;23.560;2022-12-07T09:04:33;100425.96;;;2.70;79.03
70521;BME280;58442;52.716;23.560;2022-12-07T09:06:34;100419.49;;;2.71;78.99
70521;BME280;58442;52.716;23.560;2022-12-07T09:08:41;100424.38;;;2.69;79.00
70521;BME280;58442;52.716;23.560;2022-12-07T09:10:44;100425.16;;;2.70;79.02
70521;BME280;58442;52.716;23.560;2022-12-07T09:12:48;100412.54;;;2.70;79.03
70521;BME280;58442;52.716;23.560;2022-12-07T09:14:49;100418.70;;;2.71;79.04
70521;BME280;58442;52.716;23.560;2022-12-07T09:16:51;100413.02;;;2.72;79.08
70521;BME280;58442;52.716;23.560;2022-12-07T09:18:52;100405.96;;;2.77;79.04
70521;BME280;58442;52.716;23.560;2022-12-07T09:21:03;100402.97;;;2.78;78.90
70521;BME280;58442;52.716;23.560;2022-12-07T09:23:06;100400.29;;;2.78;78.87
70521;BME280;58442;52.716;23.560;2022-12-07T09:25:07;100401.57;;;2.81;78.85
70521;BME280;58442;52.716;23.560;2022-12-07T09:27:08;100395.91;;;2.82;78.80
70521;BME280;58442;52.716;23.560;2022-12-07T09:30:46;100399.87;;;2.85;78.78
70521;BME280;58442;52.716;23.560;2022-12-07T09:32:47;100398.77;;;2.86;78.75
70521;BME280;58442;52.716;23.560;2022-12-07T09:34:48;100392.62;;;2.85;78.78
70521;BME280;58442;52.716;23.560;2022-12-07T09:36:55;100390.14;;;2.89;78.76
70521;BME280;58442;52.716;23.560;2022-12-07T09:38:56;100390.61;;;2.91;78.72
70521;BME280;58442;52.716;23.560;2022-12-07T09:40:57;100394.09;;;2.91;78.58
70521;BME280;58442;52.716;23.560;2022-12-07T09:43:03;100385.84;;;2.88;78.64
70521;BME280;58442;52.716;23.560;2022-12-07T09:45:22;100396.56;;;2.88;78.72
70521;BME280;58442;52.716;23.560;2022-12-07T09:47:32;100388.52;;;2.88;78.74
70521;BME280;58442;52.716;23.560;2022-12-07T09:49:34;100390.14;;;2.89;78.71
70521;BME280;58442;52.716;23.560;2022-12-07T09:51:35;100389.62;;;2.87;78.72
70521;BME280;58442;52.716;23.560;2022-12-07T09:53:38;100388.71;;;2.91;78.71
70521;BME280;58442;52.716;23.560;2022-12-07T09:55:47;100387.93;;;2.91;78.65
70521;BME280;58442;52.716;23.560;2022-12-07T09:57:49;100382.56;;;2.91;78.68
70521;BME280;58442;52.716;23.560;2022-12-07T09:59:59;100377.66;;;2.93;78.68
70521;BME280;58442;52.716;23.560;2022-12-07T10:04:19;100380.24;;;2.98;78.56
70521;BME280;58442;52.716;23.560;2022-12-07T10:06:23;100376.29;;;2.95;78.66
70521;BME280;58442;52.716;23.560;2022-12-07T10:08:24;100383.52;;;2.95;78.57
70521;BME280;58442;52.716;23.560;2022-12-07T10:10:29;100381.46;;;2.92;78.56
70521;BME280;58442;52.716;23.560;2022-12-07T10:17:00;100371.14;;;2.85;78.67
70521;BME280;58442;52.716;23.560;2022-12-07T10:21:16;100371.94;;;2.86;78.65
70521;BME280;58442;52.716;23.560;2022-12-07T10:23:18;100376.34;;;2.82;78.70
70521;BME280;58442;52.716;23.560;2022-12-07T10:25:21;100378.51;;;2.80;78.84
70521;BME280;58442;52.716;23.560;2022-12-07T10:27:30;100371.25;;;2.80;78.87
70521;BME280;58442;52.716;23.560;2022-12-07T10:29:37;100369.37;;;2.81;78.87
70521;BME280;58442;52.716;23.560;2022-12-07T10:31:39;100372.56;;;2.83;78.86
70521;BME280;58442;52.716;23.560;2022-12-07T10:35:58;100368.77;;;2.84;78.84
70521;BME280;58442;52.716;23.560;2022-12-07T10:37:59;100366.57;;;2.86;78.82
70521;BME280;58442;52.716;23.560;2022-12-07T10:40:01;100370.55;;;2.88;78.78
70521;BME280;58442;52.716;23.560;2022-12-07T10:42:03;100365.35;;;2.92;78.81
70521;BME280;58442;52.716;23.560;2022-12-07T10:44:21;100364.08;;;2.89;78.70
70521;BME280;58442;52.716;23.560;2022-12-07T10:46:36;100366.76;;;2.89;78.76
70521;BME280;58442;52.716;23.560;2022-12-07T10:50:58;100370.55;;;2.88;78.75
70521;BME280;58442;52.716;23.560;2022-12-07T11:04:34;100362.45;;;3.02;78.56
70521;BME280;58442;52.716;23.560;2022-12-07T11:13:28;100352.42;;;3.16;78.38
70521;BME280;58442;52.716;23.560;2022-12-07T11:24:49;100354.95;;;3.21;78.33
70521;BME280;58442;52.716;23.560;2022-12-07T11:27:10;100353.85;;;3.22;78.22
70521;BME280;58442;52.716;23.560;2022-12-07T11:30:18;100359.05;;;3.19;78.09
70521;BME280;58442;52.716;23.560;2022-12-07T11:31:53;100354.31;;;3.16;78.17
70521;BME280;58442;52.716;23.560;2022-12-07T11:34:15;100350.81;;;3.15;78.19
70521;BME280;58442;52.716;23.560;2022-12-07T11:38:37;100341.96;;;3.15;78.10
70521;BME280;58442;52.716;23.560;2022-12-07T11:40:40;100335.80;;;3.14;78.13
70521;BME280;58442;52.716;23.560;2022-12-07T11:43:35;100344.18;;;3.13;78.17
70521;BME280;58442;52.716;23.560;2022-12-07T11:45:03;100341.80;;;3.11;78.14
70521;BME280;58442;52.716;23.560;2022-12-07T11:47:25;100340.02;;;3.07;78.28
70521;BME280;58442;52.716;23.560;2022-12-07T11:51:59;100335.59;;;3.02;78.28
70521;BME280;58442;52.716;23.560;2022-12-07T11:54:21;100341.56;;;2.99;78.26
70521;BME280;58442;52.716;23.560;2022-12-07T11:56:23;100338.40;;;2.97;78.30
70521;BME280;58442;52.716;23.560;2022-12-07T12:00:40;100344.50;;;2.89;78.45
70521;BME280;58442;52.716;23.560;2022-12-07T12:02:53;100338.94;;;2.85;78.48
70521;BME280;58442;52.716;23.560;2022-12-07T12:07:27;100341.63;;;2.85;78.68
70521;BME280;58442;52.716;23.560;2022-12-07T12:09:35;100338.15;;;2.85;78.63
70521;BME280;58442;52.716;23.560;2022-12-07T12:16:18;100334.63;;;2.76;78.69
70521;BME280;58442;52.716;23.560;2022-12-07T12:20:40;100330.16;;;2.71;78.84
70521;BME280;58442;52.716;23.560;2022-12-07T12:23:01;100333.47;;;2.68;78.91